Terminal Aerodrome Forecast
Issued by NWS Green Bay, WI

Home | Current Version | Previous Version | Graphics & Text | Print | Product List | Glossary On
Versions: 1 2 3 4 5 6 7 8 9 10 11 12 13 14 15
000
FTUS43 KGRB 302338
TAFGRB
TAF
KGRB 302338Z 3100/3124 VRB03KT P6SM FEW250
     FM311200 07006KT P6SM BKN200
     FM311500 10008KT P6SM SCT080 BKN120
     FM311800 13010KT P6SM BKN070 OVC100 PROB30 3118/3124 -SHRA
      BKN035=

USA.gov is the U.S. government's official web portal to all federal, state and local government web resources and services.